createdAt,value
2022-09-22T00:00:27.015Z,0.47
2022-09-22T00:05:28.498Z,0.30
2022-09-22T00:10:30.004Z,0.45
2022-09-22T00:15:31.479Z,0.40
2022-09-22T00:20:32.946Z,0.45
2022-09-22T00:25:34.889Z,0.45
2022-09-22T00:30:39.752Z,0.25
2022-09-22T00:35:41.218Z,0.40
2022-09-22T00:40:42.743Z,0.30
2022-09-22T00:45:44.777Z,0.47
2022-09-22T00:50:46.323Z,0.35
2022-09-22T00:55:53.634Z,0.40
2022-09-22T01:00:55.838Z,0.32
2022-09-22T01:05:59.580Z,0.40
2022-09-22T01:11:01.118Z,0.30
2022-09-22T01:16:31.804Z,0.40
2022-09-22T01:21:51.819Z,0.30
2022-09-22T01:27:02.607Z,0.10
2022-09-22T01:32:07.110Z,0.30
2022-09-22T01:37:09.542Z,0.47
2022-09-22T01:42:13.323Z,0.32
2022-09-22T01:47:26.797Z,0.22
2022-09-22T01:52:30.363Z,0.30
2022-09-22T01:57:31.802Z,0.30
2022-09-22T02:02:35.813Z,0.38
2022-09-22T02:07:40.032Z,0.40
2022-09-22T02:12:41.524Z,0.32
2022-09-22T02:17:43.078Z,0.40
2022-09-22T02:22:44.709Z,0.47
2022-09-22T02:27:47.792Z,0.40
2022-09-22T02:32:50.727Z,0.30
2022-09-22T02:37:57.078Z,0.30
2022-09-22T02:43:06.461Z,0.32
2022-09-22T02:48:28.858Z,0.30
2022-09-22T02:53:30.397Z,0.38
2022-09-22T02:58:31.894Z,0.40
2022-09-22T03:03:33.525Z,0.50
2022-09-22T03:08:34.986Z,0.32
2022-09-22T03:13:36.449Z,0.32
2022-09-22T03:18:37.918Z,0.40
2022-09-22T03:23:39.368Z,0.30
2022-09-22T03:28:40.966Z,0.40
2022-09-22T03:33:42.440Z,0.40
2022-09-22T03:38:44.285Z,0.40
2022-09-22T03:43:45.817Z,0.30
2022-09-22T03:48:47.297Z,0.50
2022-09-22T03:53:48.762Z,0.28
2022-09-22T03:58:50.370Z,0.50
2022-09-22T04:03:51.863Z,0.77
2022-09-22T04:08:53.313Z,0.30
2022-09-22T04:13:54.782Z,0.50
2022-09-22T04:18:56.312Z,0.50
2022-09-22T04:23:57.890Z,0.40
2022-09-22T04:28:59.474Z,0.50
2022-09-22T04:34:04.274Z,0.60
2022-09-22T04:39:08.886Z,0.70
2022-09-22T04:44:10.347Z,0.50
2022-09-22T04:49:13.076Z,0.88
2022-09-22T04:54:14.989Z,1.00
2022-09-22T04:59:16.450Z,1.20
2022-09-22T05:04:18.718Z,1.05
2022-09-22T05:09:21.037Z,0.82
2022-09-22T05:14:26.265Z,0.73
2022-09-22T05:19:28.297Z,0.82
2022-09-22T05:24:30.032Z,0.73
2022-09-22T05:29:31.593Z,0.70
2022-09-22T05:34:33.054Z,0.60
2022-09-22T05:39:34.531Z,0.57
2022-09-22T05:44:36.006Z,0.73
2022-09-22T05:49:37.470Z,1.00
2022-09-22T05:54:38.938Z,0.60
2022-09-22T05:59:40.387Z,0.77
2022-09-22T06:04:41.911Z,0.77
2022-09-22T06:09:43.937Z,0.52
2022-09-22T06:14:45.394Z,0.68
2022-09-22T06:19:50.450Z,0.80
2022-09-22T06:24:51.942Z,0.60
2022-09-22T06:29:53.459Z,1.17
2022-09-22T06:34:56.170Z,0.80
2022-09-22T06:39:57.622Z,0.60
2022-09-22T06:44:59.074Z,0.60
2022-09-22T06:50:05.616Z,0.60
2022-09-22T06:55:07.430Z,0.60
2022-09-22T07:00:09.286Z,0.43
2022-09-22T07:05:10.734Z,0.60
2022-09-22T07:10:12.262Z,0.50
2022-09-22T07:15:13.790Z,0.60
2022-09-22T07:20:15.567Z,0.60
2022-09-22T07:25:17.019Z,0.80
2022-09-22T07:30:21.929Z,0.70
2022-09-22T07:35:24.256Z,1.15
2022-09-22T07:40:25.789Z,1.08
2022-09-22T07:45:27.426Z,0.70
2022-09-22T07:50:29.460Z,1.00
2022-09-22T07:55:30.951Z,0.77
2022-09-22T08:00:33.108Z,0.80
2022-09-22T08:05:34.942Z,0.85
2022-09-22T08:10:36.418Z,0.63
2022-09-22T08:15:42.310Z,0.90
2022-09-22T08:20:45.009Z,0.90
2022-09-22T08:25:46.702Z,0.80
2022-09-22T08:30:48.791Z,0.80
2022-09-22T08:35:51.163Z,0.77
2022-09-22T08:41:00.983Z,0.88
2022-09-22T08:46:04.116Z,0.80
2022-09-22T08:51:27.166Z,0.60
2022-09-22T08:56:33.398Z,0.85
2022-09-22T09:01:41.061Z,0.50
2022-09-22T09:07:08.835Z,0.80
2022-09-22T09:12:16.043Z,1.02
2022-09-22T09:17:28.629Z,0.70
2022-09-22T09:22:43.687Z,0.82
2022-09-22T09:27:58.273Z,0.90
2022-09-22T09:38:02.843Z,0.80
2022-09-22T09:43:05.721Z,0.65
2022-09-22T09:48:25.684Z,0.60
2022-09-22T09:53:31.577Z,0.60
2022-09-22T09:59:11.523Z,0.60
2022-09-22T10:04:28.617Z,0.52
2022-09-22T10:09:30.266Z,0.60
2022-09-22T10:14:33.448Z,0.55
2022-09-22T10:19:34.934Z,0.70
2022-09-22T10:24:37.229Z,0.45
2022-09-22T10:29:41.902Z,0.60
2022-09-22T10:39:52.246Z,0.63
2022-09-22T10:44:56.382Z,0.60
2022-09-22T10:50:23.523Z,0.70
2022-09-22T10:55:30.659Z,0.50
2022-09-22T11:00:38.935Z,0.40
2022-09-22T11:06:08.686Z,0.52
2022-09-22T11:11:51.560Z,0.70
2022-09-22T11:17:02.211Z,0.60
2022-09-22T11:22:23.151Z,0.50
2022-09-22T11:27:51.470Z,0.55
2022-09-22T11:32:59.711Z,0.60
2022-09-22T11:38:16.335Z,0.65
2022-09-22T11:43:27.046Z,0.80
2022-09-22T11:48:46.839Z,0.50
2022-09-22T11:54:07.254Z,0.80
2022-09-22T11:59:16.765Z,0.40
2022-09-22T12:04:33.891Z,0.30
2022-09-22T12:09:41.082Z,1.63
2022-09-22T12:14:42.664Z,0.43
2022-09-22T12:24:50.123Z,0.57
2022-09-22T12:29:58.031Z,0.50
2022-09-22T12:35:00.141Z,0.47
2022-09-22T12:40:07.390Z,0.30
2022-09-22T12:45:08.960Z,0.43
2022-09-22T12:50:13.417Z,0.35
2022-09-22T12:55:30.049Z,0.30
2022-09-22T13:00:33.058Z,0.45
2022-09-22T13:05:35.945Z,0.20
2022-09-22T13:10:40.056Z,0.35
2022-09-22T13:15:45.771Z,0.40
2022-09-22T13:20:47.325Z,0.30
2022-09-22T13:25:50.225Z,0.30
2022-09-22T13:31:18.009Z,0.35
2022-09-22T13:36:20.130Z,0.45
2022-09-22T13:41:24.152Z,0.70
2022-09-22T13:46:35.595Z,0.20
2022-09-22T13:51:37.185Z,0.40
2022-09-22T13:56:39.142Z,0.38
2022-09-22T14:01:47.047Z,0.40
2022-09-22T14:06:49.147Z,0.40
2022-09-22T14:11:50.638Z,0.60
2022-09-22T14:16:58.153Z,0.50
2022-09-22T14:22:00.681Z,0.57
2022-09-22T14:27:06.495Z,0.68
2022-09-22T14:32:12.946Z,0.40
2022-09-22T14:37:33.499Z,0.43
2022-09-22T14:42:35.187Z,0.70
2022-09-22T14:47:40.541Z,0.60
2022-09-22T14:52:47.169Z,0.55
2022-09-22T14:57:49.648Z,0.73
2022-09-22T15:02:54.042Z,0.38
2022-09-22T15:07:55.650Z,0.50
2022-09-22T15:13:18.419Z,0.30
2022-09-22T15:18:19.873Z,0.95
2022-09-22T15:23:23.162Z,0.60
2022-09-22T15:28:25.327Z,0.50
2022-09-22T15:33:26.794Z,0.20
2022-09-22T15:38:32.536Z,0.40
2022-09-22T15:43:34.282Z,0.43
2022-09-22T15:48:39.541Z,0.55
2022-09-22T15:53:41.860Z,1.55
2022-09-22T15:58:43.943Z,0.70
2022-09-22T16:03:45.422Z,0.35
2022-09-22T16:08:48.265Z,2.40
2022-09-22T16:13:49.757Z,2.00
2022-09-22T16:18:51.789Z,1.00
2022-09-22T16:23:54.791Z,0.70
2022-09-22T16:28:56.452Z,0.90
2022-09-22T16:33:59.057Z,0.70
2022-09-22T16:39:01.970Z,0.73
2022-09-22T16:44:04.076Z,0.98
2022-09-22T16:49:12.990Z,0.80
2022-09-22T16:54:14.625Z,0.77
2022-09-22T16:59:17.104Z,0.55
2022-09-22T17:04:21.444Z,0.70
2022-09-22T17:09:23.044Z,0.70
2022-09-22T17:14:25.594Z,0.77
2022-09-22T17:19:27.788Z,0.80
2022-09-22T17:24:29.362Z,0.60
2022-09-22T17:29:32.745Z,0.60
2022-09-22T17:34:34.919Z,0.90
2022-09-22T17:39:36.454Z,0.80
2022-09-22T17:44:38.016Z,0.70
2022-09-22T17:49:58.345Z,0.82
2022-09-22T17:55:11.187Z,0.98
2022-09-22T18:00:16.102Z,0.98
2022-09-22T18:05:19.054Z,3.30
2022-09-22T18:10:20.918Z,5.43
2022-09-22T18:15:22.917Z,4.63
2022-09-22T18:20:26.329Z,3.75
2022-09-22T18:25:28.308Z,1.85
2022-09-22T18:30:31.090Z,1.90
2022-09-22T18:35:32.670Z,1.67
2022-09-22T18:40:34.184Z,1.58
2022-09-22T18:45:37.406Z,1.13
2022-09-22T18:50:38.906Z,1.42
2022-09-22T18:55:40.379Z,1.25
2022-09-22T19:00:41.854Z,0.98
2022-09-22T19:05:43.295Z,1.00
2022-09-22T19:10:44.764Z,1.15
2022-09-22T19:15:46.555Z,1.00
2022-09-22T19:20:48.828Z,0.80
2022-09-22T19:25:54.114Z,0.90
2022-09-22T19:30:55.645Z,0.75
2022-09-22T19:35:57.193Z,1.10
2022-09-22T19:40:59.625Z,1.00
2022-09-22T19:46:02.521Z,1.13
2022-09-22T19:51:04.046Z,1.15
2022-09-22T19:56:06.639Z,1.20
2022-09-22T20:01:08.477Z,1.40
2022-09-22T20:06:09.954Z,1.33
2022-09-22T20:11:26.040Z,1.40
2022-09-22T20:16:28.232Z,1.30
2022-09-22T20:21:33.410Z,2.05
2022-09-22T20:26:35.074Z,2.38
2022-09-22T20:31:36.895Z,2.22
2022-09-22T20:36:38.375Z,4.13
2022-09-22T20:41:41.101Z,3.03
2022-09-22T20:46:42.778Z,1.35
2022-09-22T20:51:44.682Z,1.42
2022-09-22T20:56:48.727Z,2.28
2022-09-22T21:01:50.333Z,2.40
2022-09-22T21:06:51.792Z,1.00
2022-09-22T21:11:54.606Z,0.85
2022-09-22T21:16:56.127Z,0.90
2022-09-22T21:21:57.591Z,0.80
2022-09-22T21:26:59.679Z,0.60
2022-09-22T21:32:01.235Z,0.70
2022-09-22T21:37:03.171Z,0.57
2022-09-22T21:42:04.682Z,0.85
2022-09-22T21:47:06.219Z,0.95
2022-09-22T21:52:07.735Z,1.30
2022-09-22T21:57:09.186Z,1.50
2022-09-22T22:02:10.736Z,0.90
2022-09-22T22:07:12.938Z,0.90
2022-09-22T22:12:14.412Z,1.00
2022-09-22T22:17:15.959Z,0.90
2022-09-22T22:22:17.426Z,1.48
2022-09-22T22:27:18.970Z,0.95
2022-09-22T22:32:21.752Z,0.88
2022-09-22T22:37:23.234Z,0.68
2022-09-22T22:42:25.180Z,0.60
2022-09-22T22:47:26.867Z,0.63
2022-09-22T22:52:28.332Z,0.80
2022-09-22T22:57:29.872Z,0.73
2022-09-22T23:02:31.386Z,0.70
2022-09-22T23:07:32.845Z,0.70
2022-09-22T23:12:35.014Z,0.90
2022-09-22T23:17:36.965Z,0.98
2022-09-22T23:22:38.560Z,0.70
2022-09-22T23:27:47.006Z,0.77
2022-09-22T23:32:48.487Z,0.88
2022-09-22T23:37:51.977Z,0.95
2022-09-22T23:42:54.427Z,0.80
2022-09-22T23:47:56.170Z,0.70
2022-09-22T23:52:59.452Z,1.17
2022-09-22T23:58:00.910Z,0.77
